Thunder radar more information blitzortung!


Löydät sääaseman tiedot myös:

European Weather Network

Finland Weather Exchange

Weather Underground

AWEKAS



Weather Underground säähistoriasivu

Päivittäin yhteenveto Syyskuu 7, 2017 Yksiköt:  Metriset    Englantilaiset   Molemmat
« Edellinen Päivä
Seuraava Päivä »
Päivittäin Viikoittain Kuukausittain Vuosittain Mukautettu
  Korkea: Matala: Keskiarvo:
Lämpötila: -17.8 °C -15.6 °C -12.9 °C
Kastepiste: -17.8 °C -15.9 °C -13.8 °C
Kosteus: Humidity % 68 % 89 %
Tuulen nopeus: 0 km/h 0 km/h 0 km/h
Tuulenpuuska: 0 km/h - -
Tuuli:- - North
Ilmanpaine: 0 hPa 34005.6 hPa -
Sade: 0 mm    
Historical Graphs
 
 
Taulukkotiedot Syyskuu 7, 2017
Aika Lämpötila Kastepiste Ilmanpaine Tuuli Tuulen nopeus Tuulenpuuska Kosteus Sademäärä (tunneittain)
-17.8 °C -17.8 °C 0 hPa Calm     Humidity % 0 mm
00:00 -14.9 °C -15.4 °C 34361.1 hPa Calm     94 % 0 mm
00:15 -14.9 °C -15.4 °C 34361.1 hPa Calm     94 % 0 mm
00:30 -14.9 °C -15.3 °C 34361.1 hPa Calm     95 % 0 mm
00:45 -14.8 °C -15.2 °C 34347.6 hPa Calm     95 % 0 mm
01:00 -14.8 °C -15.2 °C 34347.6 hPa Calm     95 % 0 mm
01:15 -14.8 °C -15.3 °C 34347.6 hPa Calm     94 % 0 mm
01:30 -14.8 °C -15.2 °C 34337.4 hPa Calm     94 % 0 mm
01:45 -14.8 °C -15.2 °C 34337.4 hPa Calm     95 % 0 mm
02:00 -14.7 °C -15.1 °C 34337.4 hPa Calm     95 % 0 mm
02:15 -14.6 °C -15.1 °C 34337.4 hPa Calm     95 % 0 mm
02:30 -14.6 °C -15 °C 34337.4 hPa Calm     95 % 0 mm
02:45 -14.6 °C -14.9 °C 34327.3 hPa Calm     95 % 0 mm
03:00 -14.5 °C -14.9 °C 34327.3 hPa Calm     95 % 0 mm
03:15 -14.4 °C -14.8 °C 34313.7 hPa Calm     95 % 0 mm
03:30 -14.3 °C -14.8 °C 34313.7 hPa Calm     95 % 0 mm
03:45 -14.3 °C -14.8 °C 34303.6 hPa Calm     95 % 0 mm
04:00 -14.3 °C -14.7 °C 34303.6 hPa Calm     95 % 0 mm
04:15 -14.3 °C -14.7 °C 34303.6 hPa Calm     95 % 0 mm
04:30 -14.3 °C -14.8 °C 34293.4 hPa Calm     95 % 0 mm
04:45 -14.6 °C -15.1 °C 34293.4 hPa Calm     94 % 0 mm
05:00 -14.8 °C -15.2 °C 34293.4 hPa Calm     94 % 0 mm
05:15 -15 °C -15.5 °C 34293.4 hPa Calm     94 % 0 mm
05:30 -15.3 °C -15.8 °C 34279.9 hPa Calm   2.6 km/h 94 % 0 mm
05:45 -15.5 °C -15.9 °C 34279.9 hPa Calm     95 % 0 mm
06:00 -15.6 °C -15.9 °C 34279.9 hPa Calm     95 % 0 mm
06:30 -15.6 °C -15.9 °C 34269.7 hPa Calm     96 % 0 mm
06:45 -15.4 °C -15.8 °C 34269.7 hPa Calm     96 % 0 mm
07:00 -15.4 °C -15.7 °C 34269.7 hPa Calm     96 % 0 mm
07:15 -15.3 °C -15.6 °C 34269.7 hPa Calm     96 % 0 mm
07:30 -15.2 °C -15.5 °C 34256.2 hPa Calm     96 % 0 mm
07:45 -14.9 °C -15.2 °C 34256.2 hPa Calm     97 % 0 mm
08:00 -14.8 °C -15 °C 34256.2 hPa Calm     97 % 0 mm
08:15 -14.5 °C -14.8 °C 34246 hPa Calm     97 % 0 mm
08:30 -14.3 °C -14.5 °C 34246 hPa Calm     97 % 0 mm
08:45 -14 °C -14.2 °C 34246 hPa Calm     97 % 0 mm
09:00 -13.8 °C -14 °C 34235.8 hPa Calm     97 % 0 mm
09:15 -13.6 °C -13.8 °C 34235.8 hPa Calm     97 % 0 mm
09:30 -13.3 °C -13.6 °C 34235.8 hPa Calm     97 % 0 mm
09:45 -13.1 °C -13.4 °C 34222.3 hPa Calm     96 % 0 mm
10:00 -12.7 °C -13.2 °C 34222.3 hPa Calm     95 % 0 mm
10:15 -12.4 °C -12.9 °C 34212.1 hPa Calm     94 % 0 mm
10:30 -12.3 °C -12.8 °C 34212.1 hPa Calm   2.6 km/h 93 % 0 mm
11:00 -11.8 °C -12.9 °C 34198.6 hPa Calm   2.6 km/h 88 % 0 mm
11:15 -11.6 °C -12.8 °C 34198.6 hPa Calm   2.6 km/h 85 % 0 mm
11:30 -11.3 °C -12.7 °C 34188.4 hPa Calm   2.6 km/h 84 % 0 mm
11:45 -10.8 °C -12.4 °C 34188.4 hPa Calm   10.3 km/h 82 % 0 mm
12:00 -10.7 °C -12.4 °C 34188.4 hPa Calm   2.6 km/h 81 % 0 mm
12:15 -10.6 °C -12.7 °C 34178.3 hPa Calm   5.1 km/h 77 % 0 mm
12:30 -10.4 °C -12.8 °C 34178.3 hPa Calm   2.6 km/h 75 % 0 mm
12:45 -10.2 °C -12.9 °C 34164.7 hPa Calm   2.6 km/h 73 % 0 mm
13:00 -10.1 °C -12.8 °C 34164.7 hPa Calm   2.6 km/h 72 % 0 mm
13:15 -10.1 °C -12.9 °C 34154.6 hPa Calm   5.1 km/h 72 % 0 mm
13:30 -9.9 °C -12.8 °C 34154.6 hPa Calm   5.1 km/h 71 % 0 mm
13:45 -9.7 °C -12.8 °C 34144.4 hPa Calm   5.1 km/h 69 % 0 mm
14:00 -9.6 °C -12.6 °C 34130.9 hPa Calm   5.1 km/h 70 % 0 mm
14:15 -9.6 °C -12.9 °C 34130.9 hPa Calm   2.6 km/h 68 % 0 mm
14:30 -9.8 °C -12.8 °C 34130.9 hPa Calm   10.3 km/h 70 % 0 mm
14:45 -9.9 °C -12.8 °C 34130.9 hPa Calm   10.3 km/h 71 % 0 mm
15:00 -10.1 °C -12.8 °C 34120.7 hPa Calm   2.6 km/h 72 % 0 mm
15:15 -9.9 °C -12.6 °C 34120.7 hPa Calm   2.6 km/h 73 % 0 mm
15:30 -9.9 °C -12.8 °C 34107.2 hPa Calm     71 % 0 mm
15:45 -10.1 °C -12.8 °C 34107.2 hPa Calm   5.1 km/h 72 % 0 mm
16:00 -10.1 °C -12.9 °C 34107.2 hPa Calm   15.6 km/h 72 % 0 mm
16:15 -10.4 °C -12.9 °C 34107.2 hPa Calm   5.1 km/h 75 % 0 mm
16:30 -10.8 °C -12.7 °C 34107.2 hPa Calm   2.6 km/h 80 % 0 mm
16:45 -11.2 °C -12.6 °C 34107.2 hPa Calm   10.3 km/h 84 % 0 mm
17:00 -11.5 °C -12.6 °C 34107.2 hPa Calm   7.7 km/h 88 % 0 mm
17:15 -11.8 °C -12.7 °C 34107.2 hPa Calm   2.6 km/h 90 % 0 mm
17:30 -11.9 °C -12.6 °C 34107.2 hPa Calm   5.1 km/h 92 % 0 mm
17:45 -12.1 °C -12.7 °C 34107.2 hPa Calm     92 % 0 mm
18:00 -12.2 °C -12.8 °C 34107.2 hPa Calm   2.6 km/h 93 % 0 mm
18:15 -12.2 °C -12.8 °C 34107.2 hPa Calm     93 % 0 mm
18:30 -12.3 °C -12.8 °C 34097 hPa Calm     94 % 0 mm
18:45 -12.3 °C -12.8 °C 34097 hPa Calm     94 % 0 mm
19:00 -12.4 °C -12.8 °C 34097 hPa Calm     95 % 0 mm
19:15 -12.4 °C -12.8 °C 34086.9 hPa Calm     95 % 0 mm
19:30 -12.4 °C -12.8 °C 34086.9 hPa Calm     95 % 0 mm
19:45 -12.4 °C -12.9 °C 34086.9 hPa Calm     95 % 0 mm
20:00 -12.5 °C -12.9 °C 34073.3 hPa Calm     95 % 0 mm
20:15 -12.6 °C -12.9 °C 34073.3 hPa Calm     95 % 0 mm
20:30 -12.6 °C -13 °C 34063.2 hPa Calm     95 % 0 mm
20:45 -12.6 °C -13.1 °C 34063.2 hPa Calm   2.6 km/h 95 % 0 mm
21:00 -12.7 °C -13.1 °C 34063.2 hPa Calm   2.6 km/h 95 % 0 mm
21:15 -12.7 °C -13 °C 34049.6 hPa Calm     96 % 0 mm
21:30 -12.7 °C -13 °C 34049.6 hPa Calm     96 % 0 mm
21:45 -12.7 °C -13.1 °C 34039.5 hPa Calm     96 % 0 mm
22:00 -12.7 °C -13.2 °C 34039.5 hPa Calm     95 % 0 mm
22:15 -12.7 °C -13.1 °C 34039.5 hPa Calm   2.6 km/h 96 % 0 mm
22:30 -12.7 °C -13.1 °C 34029.3 hPa Calm   2.6 km/h 96 % 0 mm
22:45 -12.8 °C -13.2 °C 34029.3 hPa Calm   2.6 km/h 95 % 0 mm
23:00 -12.9 °C -13.3 °C 34015.8 hPa Calm   5.1 km/h 95 % 0 mm
23:15 -12.9 °C -13.3 °C 34015.8 hPa Calm   2.6 km/h 95 % 0 mm
23:30 -13 °C -13.4 °C 34005.6 hPa Calm     95 % 0 mm
23:45 -13 °C -13.4 °C 34005.6 hPa Calm   2.6 km/h 95 % 0 mm
Esan sääasema
Terveisin Weather Underground - 2.75 mb

Alkuperäinen skripti  Jim McMurry - jmcmurry@mwt.net Sovitettu myös templatelle  Wim van der Kuil - Leuven-Template.eu

Laitteet joita käytämme:

Sääasema
Davis VP2

Sääasemaohjelma
Cumulus

Sääaseman tietokone
Asus EeePC

Palveluntarjoaja
Suncomet

Davis VP2

Cumulus

Asus EeePC

Suncomet